sensor_id;sensor_type;location;lat;lon;timestamp;temperature;humidity
68867;SHT30;56451;44.804;20.476;2022-12-18T00:01:53;3.72;65.07
68867;SHT30;56451;44.804;20.476;2022-12-18T00:04:23;3.69;65.53
68867;SHT30;56451;44.804;20.476;2022-12-18T00:06:50;3.65;65.00
68867;SHT30;56451;44.804;20.476;2022-12-18T00:09:16;3.76;65.50
68867;SHT30;56451;44.804;20.476;2022-12-18T00:11:42;3.66;63.71
68867;SHT30;56451;44.804;20.476;2022-12-18T00:14:10;3.59;64.34
68867;SHT30;56451;44.804;20.476;2022-12-18T00:16:36;3.56;64.63
68867;SHT30;56451;44.804;20.476;2022-12-18T00:19:03;3.52;64.40
68867;SHT30;56451;44.804;20.476;2022-12-18T00:21:31;3.51;64.73
68867;SHT30;56451;44.804;20.476;2022-12-18T00:23:58;3.52;64.94
68867;SHT30;56451;44.804;20.476;2022-12-18T00:26:32;3.32;65.43
68867;SHT30;56451;44.804;20.476;2022-12-18T00:29:03;3.21;66.22
68867;SHT30;56451;44.804;20.476;2022-12-18T00:31:30;3.21;66.53
68867;SHT30;56451;44.804;20.476;2022-12-18T00:33:56;3.14;66.36
68867;SHT30;56451;44.804;20.476;2022-12-18T00:36:27;3.24;66.35
68867;SHT30;56451;44.804;20.476;2022-12-18T00:38:55;3.38;65.24
68867;SHT30;56451;44.804;20.476;2022-12-18T00:41:22;3.48;65.13
68867;SHT30;56451;44.804;20.476;2022-12-18T00:44:10;3.45;63.94
68867;SHT30;56451;44.804;20.476;2022-12-18T00:46:36;3.32;64.45
68867;SHT30;56451;44.804;20.476;2022-12-18T00:49:02;3.32;64.53
68867;SHT30;56451;44.804;20.476;2022-12-18T00:51:34;3.35;64.66
68867;SHT30;56451;44.804;20.476;2022-12-18T00:54:02;3.30;64.38
68867;SHT30;56451;44.804;20.476;2022-12-18T00:56:28;3.30;64.29
68867;SHT30;56451;44.804;20.476;2022-12-18T00:58:54;3.31;64.77
68867;SHT30;56451;44.804;20.476;2022-12-18T01:01:20;3.35;64.07
68867;SHT30;56451;44.804;20.476;2022-12-18T01:03:49;3.41;64.05
68867;SHT30;56451;44.804;20.476;2022-12-18T01:06:25;3.45;64.10
68867;SHT30;56451;44.804;20.476;2022-12-18T01:08:51;3.27;64.05
68867;SHT30;56451;44.804;20.476;2022-12-18T01:11:19;3.17;64.66
68867;SHT30;56451;44.804;20.476;2022-12-18T01:13:45;3.18;64.16
68867;SHT30;56451;44.804;20.476;2022-12-18T01:16:12;3.14;64.17
68867;SHT30;56451;44.804;20.476;2022-12-18T01:18:39;3.18;64.11
68867;SHT30;56451;44.804;20.476;2022-12-18T01:21:10;3.20;63.65
68867;SHT30;56451;44.804;20.476;2022-12-18T01:23:36;3.25;64.22
68867;SHT30;56451;44.804;20.476;2022-12-18T01:26:08;3.32;64.14
68867;SHT30;56451;44.804;20.476;2022-12-18T01:28:36;3.44;63.66
68867;SHT30;56451;44.804;20.476;2022-12-18T01:31:34;3.52;63.15
68867;SHT30;56451;44.804;20.476;2022-12-18T01:34:03;3.55;63.14
68867;SHT30;56451;44.804;20.476;2022-12-18T01:36:34;3.59;62.85
68867;SHT30;56451;44.804;20.476;2022-12-18T01:39:03;3.61;63.16
68867;SHT30;56451;44.804;20.476;2022-12-18T01:41:30;3.69;63.21
68867;SHT30;56451;44.804;20.476;2022-12-18T01:47:42;3.36;63.80
68867;SHT30;56451;44.804;20.476;2022-12-18T01:50:13;3.23;64.27
68867;SHT30;56451;44.804;20.476;2022-12-18T01:52:42;3.28;64.33
68867;SHT30;56451;44.804;20.476;2022-12-18T01:55:09;3.24;64.28
68867;SHT30;56451;44.804;20.476;2022-12-18T01:57:35;3.23;64.56
68867;SHT30;56451;44.804;20.476;2022-12-18T02:00:07;3.15;64.71
68867;SHT30;56451;44.804;20.476;2022-12-18T02:02:42;3.10;64.47
68867;SHT30;56451;44.804;20.476;2022-12-18T02:05:10;3.10;64.70
68867;SHT30;56451;44.804;20.476;2022-12-18T02:07:40;3.20;64.86
68867;SHT30;56451;44.804;20.476;2022-12-18T02:12:48;3.15;64.54
68867;SHT30;56451;44.804;20.476;2022-12-18T02:15:43;2.92;65.10
68867;SHT30;56451;44.804;20.476;2022-12-18T02:18:18;3.00;65.46
68867;SHT30;56451;44.804;20.476;2022-12-18T02:20:55;3.01;65.23
68867;SHT30;56451;44.804;20.476;2022-12-18T02:23:39;3.08;65.11
68867;SHT30;56451;44.804;20.476;2022-12-18T02:26:19;3.08;65.36
68867;SHT30;56451;44.804;20.476;2022-12-18T02:28:56;3.11;65.37
68867;SHT30;56451;44.804;20.476;2022-12-18T02:31:32;3.07;64.99
68867;SHT30;56451;44.804;20.476;2022-12-18T02:34:02;3.11;65.36
68867;SHT30;56451;44.804;20.476;2022-12-18T02:36:36;3.14;64.85
68867;SHT30;56451;44.804;20.476;2022-12-18T02:39:04;3.23;65.05
68867;SHT30;56451;44.804;20.476;2022-12-18T02:41:31;3.25;64.92
68867;SHT30;56451;44.804;20.476;2022-12-18T02:44:00;3.27;65.31
68867;SHT30;56451;44.804;20.476;2022-12-18T02:46:35;3.39;65.11
68867;SHT30;56451;44.804;20.476;2022-12-18T02:49:22;3.39;65.03
68867;SHT30;56451;44.804;20.476;2022-12-18T02:56:51;3.25;65.84
68867;SHT30;56451;44.804;20.476;2022-12-18T02:59:31;3.30;66.46
68867;SHT30;56451;44.804;20.476;2022-12-18T03:02:20;3.35;66.42
68867;SHT30;56451;44.804;20.476;2022-12-18T03:04:58;3.34;66.15
68867;SHT30;56451;44.804;20.476;2022-12-18T03:07:35;3.39;65.91
68867;SHT30;56451;44.804;20.476;2022-12-18T03:10:07;3.46;65.79
68867;SHT30;56451;44.804;20.476;2022-12-18T03:12:40;3.31;65.54
68867;SHT30;56451;44.804;20.476;2022-12-18T03:15:42;3.18;66.63
68867;SHT30;56451;44.804;20.476;2022-12-18T03:18:32;3.08;66.78
68867;SHT30;56451;44.804;20.476;2022-12-18T03:21:02;2.96;67.28
68867;SHT30;56451;44.804;20.476;2022-12-18T03:23:47;2.93;67.46
68867;SHT30;56451;44.804;20.476;2022-12-18T03:26:16;2.75;68.16
68867;SHT30;56451;44.804;20.476;2022-12-18T03:28:51;2.60;68.21
68867;SHT30;56451;44.804;20.476;2022-12-18T03:31:22;2.63;68.21
68867;SHT30;56451;44.804;20.476;2022-12-18T03:34:13;2.76;67.98
68867;SHT30;56451;44.804;20.476;2022-12-18T03:36:43;2.75;68.01
68867;SHT30;56451;44.804;20.476;2022-12-18T03:39:10;2.60;68.03
68867;SHT30;56451;44.804;20.476;2022-12-18T03:41:45;2.48;68.18
68867;SHT30;56451;44.804;20.476;2022-12-18T03:47:35;2.41;68.75
68867;SHT30;56451;44.804;20.476;2022-12-18T03:50:29;2.50;69.04
68867;SHT30;56451;44.804;20.476;2022-12-18T03:53:26;2.62;68.28
68867;SHT30;56451;44.804;20.476;2022-12-18T03:55:55;2.66;67.36
68867;SHT30;56451;44.804;20.476;2022-12-18T03:58:25;2.67;66.62
68867;SHT30;56451;44.804;20.476;2022-12-18T04:01:02;2.67;66.77
68867;SHT30;56451;44.804;20.476;2022-12-18T04:03:31;2.67;66.57
68867;SHT30;56451;44.804;20.476;2022-12-18T04:05:59;2.53;65.69
68867;SHT30;56451;44.804;20.476;2022-12-18T04:08:28;2.46;66.52
68867;SHT30;56451;44.804;20.476;2022-12-18T04:11:04;2.52;66.77
68867;SHT30;56451;44.804;20.476;2022-12-18T04:13:37;2.59;66.66
68867;SHT30;56451;44.804;20.476;2022-12-18T04:16:06;2.65;66.64
68867;SHT30;56451;44.804;20.476;2022-12-18T04:18:33;2.71;66.31
68867;SHT30;56451;44.804;20.476;2022-12-18T04:21:00;2.77;66.11
68867;SHT30;56451;44.804;20.476;2022-12-18T04:23:27;2.83;65.68
68867;SHT30;56451;44.804;20.476;2022-12-18T04:25:56;2.90;65.34
68867;SHT30;56451;44.804;20.476;2022-12-18T04:28:36;2.80;65.30
68867;SHT30;56451;44.804;20.476;2022-12-18T04:31:02;2.72;65.83
68867;SHT30;56451;44.804;20.476;2022-12-18T04:33:28;2.71;66.15
68867;SHT30;56451;44.804;20.476;2022-12-18T04:35:55;2.60;66.14
68867;SHT30;56451;44.804;20.476;2022-12-18T04:38:21;2.62;66.07
68867;SHT30;56451;44.804;20.476;2022-12-18T04:40:53;2.67;66.06
68867;SHT30;56451;44.804;20.476;2022-12-18T04:43:25;2.73;66.15
68867;SHT30;56451;44.804;20.476;2022-12-18T04:45:50;2.62;65.50
68867;SHT30;56451;44.804;20.476;2022-12-18T04:48:16;2.57;65.91
68867;SHT30;56451;44.804;20.476;2022-12-18T04:50:42;2.56;66.13
68867;SHT30;56451;44.804;20.476;2022-12-18T04:53:08;2.52;66.34
68867;SHT30;56451;44.804;20.476;2022-12-18T04:55:34;2.53;66.41
68867;SHT30;56451;44.804;20.476;2022-12-18T04:58:00;2.55;66.83
68867;SHT30;56451;44.804;20.476;2022-12-18T05:00:26;2.50;66.96
68867;SHT30;56451;44.804;20.476;2022-12-18T05:02:52;2.56;67.03
68867;SHT30;56451;44.804;20.476;2022-12-18T05:05:17;2.52;67.08
68867;SHT30;56451;44.804;20.476;2022-12-18T05:07:43;2.42;67.38
68867;SHT30;56451;44.804;20.476;2022-12-18T05:10:10;2.39;67.65
68867;SHT30;56451;44.804;20.476;2022-12-18T05:12:36;2.32;67.94
68867;SHT30;56451;44.804;20.476;2022-12-18T05:15:21;2.26;67.91
68867;SHT30;56451;44.804;20.476;2022-12-18T05:17:47;2.11;67.66
68867;SHT30;56451;44.804;20.476;2022-12-18T05:20:13;2.13;68.15
68867;SHT30;56451;44.804;20.476;2022-12-18T05:22:39;2.00;68.55
68867;SHT30;56451;44.804;20.476;2022-12-18T05:25:05;1.98;68.96
68867;SHT30;56451;44.804;20.476;2022-12-18T05:27:31;2.01;69.05
68867;SHT30;56451;44.804;20.476;2022-12-18T05:29:57;2.10;68.94
68867;SHT30;56451;44.804;20.476;2022-12-18T05:32:23;2.17;68.77
68867;SHT30;56451;44.804;20.476;2022-12-18T05:34:49;1.97;68.70
68867;SHT30;56451;44.804;20.476;2022-12-18T05:37:14;1.83;69.84
68867;SHT30;56451;44.804;20.476;2022-12-18T05:39:40;1.88;70.03
68867;SHT30;56451;44.804;20.476;2022-12-18T05:42:07;1.88;69.83
68867;SHT30;56451;44.804;20.476;2022-12-18T05:44:33;1.97;69.99
68867;SHT30;56451;44.804;20.476;2022-12-18T05:46:59;1.94;69.53
68867;SHT30;56451;44.804;20.476;2022-12-18T05:49:25;1.78;70.43
68867;SHT30;56451;44.804;20.476;2022-12-18T05:51:51;1.76;70.73
68867;SHT30;56451;44.804;20.476;2022-12-18T05:54:17;1.74;70.72
68867;SHT30;56451;44.804;20.476;2022-12-18T05:56:43;1.78;70.77
68867;SHT30;56451;44.804;20.476;2022-12-18T05:59:09;1.93;70.22
68867;SHT30;56451;44.804;20.476;2022-12-18T06:01:35;1.88;70.31
68867;SHT30;56451;44.804;20.476;2022-12-18T06:04:01;1.87;70.41
68867;SHT30;56451;44.804;20.476;2022-12-18T06:06:27;1.77;70.44
68867;SHT30;56451;44.804;20.476;2022-12-18T06:08:55;1.63;70.68
68867;SHT30;56451;44.804;20.476;2022-12-18T06:11:24;1.52;71.25
68867;SHT30;56451;44.804;20.476;2022-12-18T06:13:54;1.49;71.70
68867;SHT30;56451;44.804;20.476;2022-12-18T06:16:21;1.39;71.44
68867;SHT30;56451;44.804;20.476;2022-12-18T06:18:47;1.29;71.92
68867;SHT30;56451;44.804;20.476;2022-12-18T06:21:13;1.32;72.47
68867;SHT30;56451;44.804;20.476;2022-12-18T06:23:39;1.31;72.07
68867;SHT30;56451;44.804;20.476;2022-12-18T06:26:06;1.27;71.87
68867;SHT30;56451;44.804;20.476;2022-12-18T06:28:32;1.27;72.28
68867;SHT30;56451;44.804;20.476;2022-12-18T06:30:58;1.36;72.43
68867;SHT30;56451;44.804;20.476;2022-12-18T06:33:26;1.46;72.03
68867;SHT30;56451;44.804;20.476;2022-12-18T06:35:52;1.38;71.79
68867;SHT30;56451;44.804;20.476;2022-12-18T06:38:18;1.39;72.09
68867;SHT30;56451;44.804;20.476;2022-12-18T06:40:44;1.45;71.46
68867;SHT30;56451;44.804;20.476;2022-12-18T06:43:10;1.55;71.57
68867;SHT30;56451;44.804;20.476;2022-12-18T06:45:36;1.62;70.73
68867;SHT30;56451;44.804;20.476;2022-12-18T06:48:02;1.64;70.95
68867;SHT30;56451;44.804;20.476;2022-12-18T06:50:28;1.60;70.63
68867;SHT30;56451;44.804;20.476;2022-12-18T06:52:54;1.57;71.26
68867;SHT30;56451;44.804;20.476;2022-12-18T06:55:20;1.60;71.45
68867;SHT30;56451;44.804;20.476;2022-12-18T06:57:46;1.60;71.50
68867;SHT30;56451;44.804;20.476;2022-12-18T07:00:12;1.56;71.47
68867;SHT30;56451;44.804;20.476;2022-12-18T07:02:38;1.53;71.37
68867;SHT30;56451;44.804;20.476;2022-12-18T07:05:04;1.49;71.53
68867;SHT30;56451;44.804;20.476;2022-12-18T07:07:30;1.50;71.62
68867;SHT30;56451;44.804;20.476;2022-12-18T07:09:55;1.56;71.62
68867;SHT30;56451;44.804;20.476;2022-12-18T07:12:21;1.46;71.86
68867;SHT30;56451;44.804;20.476;2022-12-18T07:14:47;1.40;71.77
68867;SHT30;56451;44.804;20.476;2022-12-18T07:17:13;1.32;72.15
68867;SHT30;56451;44.804;20.476;2022-12-18T07:19:39;1.27;72.13
68867;SHT30;56451;44.804;20.476;2022-12-18T07:22:05;1.34;72.05
68867;SHT30;56451;44.804;20.476;2022-12-18T07:24:32;1.46;71.70
68867;SHT30;56451;44.804;20.476;2022-12-18T07:26:59;1.39;71.25
68867;SHT30;56451;44.804;20.476;2022-12-18T07:29:25;1.35;71.66
68867;SHT30;56451;44.804;20.476;2022-12-18T07:31:51;1.39;72.07
68867;SHT30;56451;44.804;20.476;2022-12-18T07:34:16;1.35;72.03
68867;SHT30;56451;44.804;20.476;2022-12-18T07:36:42;1.38;72.26
68867;SHT30;56451;44.804;20.476;2022-12-18T07:39:10;1.46;72.13
68867;SHT30;56451;44.804;20.476;2022-12-18T07:41:36;1.49;72.04
68867;SHT30;56451;44.804;20.476;2022-12-18T07:44:10;1.59;71.97
68867;SHT30;56451;44.804;20.476;2022-12-18T07:46:36;1.60;71.92
68867;SHT30;56451;44.804;20.476;2022-12-18T07:49:02;1.53;71.76
68867;SHT30;56451;44.804;20.476;2022-12-18T07:51:28;1.55;72.05
68867;SHT30;56451;44.804;20.476;2022-12-18T07:53:54;1.62;72.34
68867;SHT30;56451;44.804;20.476;2022-12-18T07:56:20;1.70;71.37
68867;SHT30;56451;44.804;20.476;2022-12-18T07:58:47;1.66;71.82
68867;SHT30;56451;44.804;20.476;2022-12-18T08:01:13;1.74;71.94
68867;SHT30;56451;44.804;20.476;2022-12-18T08:03:40;1.84;71.73
68867;SHT30;56451;44.804;20.476;2022-12-18T08:06:08;1.94;70.94
68867;SHT30;56451;44.804;20.476;2022-12-18T08:08:34;2.04;70.82
68867;SHT30;56451;44.804;20.476;2022-12-18T08:11:00;2.03;70.32
68867;SHT30;56451;44.804;20.476;2022-12-18T08:13:27;1.88;70.19
68867;SHT30;56451;44.804;20.476;2022-12-18T08:16:01;1.71;70.67
68867;SHT30;56451;44.804;20.476;2022-12-18T08:18:28;1.64;71.15
68867;SHT30;56451;44.804;20.476;2022-12-18T08:20:54;1.62;70.82
68867;SHT30;56451;44.804;20.476;2022-12-18T08:23:20;1.67;70.99
68867;SHT30;56451;44.804;20.476;2022-12-18T08:25:47;1.70;70.67
68867;SHT30;56451;44.804;20.476;2022-12-18T08:28:13;1.67;70.79
68867;SHT30;56451;44.804;20.476;2022-12-18T08:30:41;1.63;70.92
68867;SHT30;56451;44.804;20.476;2022-12-18T08:33:08;1.64;70.83
68867;SHT30;56451;44.804;20.476;2022-12-18T08:35:36;1.71;70.78
68867;SHT30;56451;44.804;20.476;2022-12-18T08:38:03;1.71;70.75
68867;SHT30;56451;44.804;20.476;2022-12-18T08:40:29;1.83;70.60
68867;SHT30;56451;44.804;20.476;2022-12-18T08:42:55;1.87;70.46
68867;SHT30;56451;44.804;20.476;2022-12-18T08:45:39;1.96;70.35
68867;SHT30;56451;44.804;20.476;2022-12-18T08:48:05;2.08;69.99
68867;SHT30;56451;44.804;20.476;2022-12-18T08:50:31;2.17;69.45
68867;SHT30;56451;44.804;20.476;2022-12-18T08:52:57;2.15;69.37
68867;SHT30;56451;44.804;20.476;2022-12-18T08:55:22;2.18;69.50
68867;SHT30;56451;44.804;20.476;2022-12-18T08:57:49;2.18;69.61
68867;SHT30;56451;44.804;20.476;2022-12-18T09:00:15;2.04;69.31
68867;SHT30;56451;44.804;20.476;2022-12-18T09:02:41;1.91;69.65
68867;SHT30;56451;44.804;20.476;2022-12-18T09:05:07;1.88;70.08
68867;SHT30;56451;44.804;20.476;2022-12-18T09:07:33;1.80;70.64
68867;SHT30;56451;44.804;20.476;2022-12-18T09:09:58;1.86;70.65
68867;SHT30;56451;44.804;20.476;2022-12-18T09:12:25;2.03;70.67
68867;SHT30;56451;44.804;20.476;2022-12-18T09:14:51;2.15;70.70
68867;SHT30;56451;44.804;20.476;2022-12-18T09:17:17;2.24;70.87
68867;SHT30;56451;44.804;20.476;2022-12-18T09:19:43;2.35;70.33
68867;SHT30;56451;44.804;20.476;2022-12-18T09:22:09;2.57;69.06
68867;SHT30;56451;44.804;20.476;2022-12-18T09:24:35;2.76;68.33
68867;SHT30;56451;44.804;20.476;2022-12-18T09:27:01;2.87;67.64
68867;SHT30;56451;44.804;20.476;2022-12-18T09:29:27;2.99;67.18
68867;SHT30;56451;44.804;20.476;2022-12-18T09:31:53;3.14;66.51
68867;SHT30;56451;44.804;20.476;2022-12-18T09:34:19;3.34;65.05
68867;SHT30;56451;44.804;20.476;2022-12-18T09:36:47;3.48;64.19
68867;SHT30;56451;44.804;20.476;2022-12-18T09:39:14;3.59;64.19
68867;SHT30;56451;44.804;20.476;2022-12-18T09:41:54;3.68;64.13
68867;SHT30;56451;44.804;20.476;2022-12-18T09:49:35;4.10;62.95
68867;SHT30;56451;44.804;20.476;2022-12-18T09:54:46;4.29;62.31
68867;SHT30;56451;44.804;20.476;2022-12-18T09:57:15;4.33;61.65
68867;SHT30;56451;44.804;20.476;2022-12-18T09:59:58;4.37;61.97
68867;SHT30;56451;44.804;20.476;2022-12-18T10:02:30;4.44;61.90
68867;SHT30;56451;44.804;20.476;2022-12-18T10:05:07;4.36;62.08
68867;SHT30;56451;44.804;20.476;2022-12-18T10:07:55;4.29;61.73
68867;SHT30;56451;44.804;20.476;2022-12-18T10:10:41;4.25;61.72
68867;SHT30;56451;44.804;20.476;2022-12-18T10:16:13;4.16;62.28
68867;SHT30;56451;44.804;20.476;2022-12-18T10:21:39;4.23;61.73
68867;SHT30;56451;44.804;20.476;2022-12-18T10:26:49;3.79;62.80
68867;SHT30;56451;44.804;20.476;2022-12-18T10:29:16;3.55;63.46
68867;SHT30;56451;44.804;20.476;2022-12-18T10:31:42;3.52;63.78
68867;SHT30;56451;44.804;20.476;2022-12-18T10:34:12;3.63;63.98
68867;SHT30;56451;44.804;20.476;2022-12-18T10:36:38;3.76;63.11
68867;SHT30;56451;44.804;20.476;2022-12-18T10:39:19;3.90;62.15
68867;SHT30;56451;44.804;20.476;2022-12-18T10:41:46;3.89;60.03
68867;SHT30;56451;44.804;20.476;2022-12-18T10:44:18;3.76;60.38
68867;SHT30;56451;44.804;20.476;2022-12-18T10:46:46;3.69;61.20
68867;SHT30;56451;44.804;20.476;2022-12-18T10:49:25;3.71;61.66
68867;SHT30;56451;44.804;20.476;2022-12-18T10:51:52;3.78;62.12
68867;SHT30;56451;44.804;20.476;2022-12-18T10:54:30;3.87;61.24
68867;SHT30;56451;44.804;20.476;2022-12-18T10:57:20;3.93;61.46
68867;SHT30;56451;44.804;20.476;2022-12-18T10:59:56;3.97;61.65
68867;SHT30;56451;44.804;20.476;2022-12-18T11:02:37;3.97;61.90
68867;SHT30;56451;44.804;20.476;2022-12-18T11:05:31;3.99;63.13
68867;SHT30;56451;44.804;20.476;2022-12-18T11:07:59;3.75;63.55
68867;SHT30;56451;44.804;20.476;2022-12-18T11:10:32;3.46;64.41
68867;SHT30;56451;44.804;20.476;2022-12-18T11:13:21;3.41;64.49
68867;SHT30;56451;44.804;20.476;2022-12-18T11:15:48;3.41;64.17
68867;SHT30;56451;44.804;20.476;2022-12-18T11:18:22;3.46;64.50
68867;SHT30;56451;44.804;20.476;2022-12-18T11:20:59;3.50;63.34
68867;SHT30;56451;44.804;20.476;2022-12-18T11:23:27;3.36;63.72
68867;SHT30;56451;44.804;20.476;2022-12-18T11:25:58;3.32;63.45
68867;SHT30;56451;44.804;20.476;2022-12-18T11:28:47;3.34;63.57
68867;SHT30;56451;44.804;20.476;2022-12-18T11:36:17;3.65;63.20
68867;SHT30;56451;44.804;20.476;2022-12-18T11:38:45;3.75;63.05
68867;SHT30;56451;44.804;20.476;2022-12-18T11:43:58;4.09;61.31
68867;SHT30;56451;44.804;20.476;2022-12-18T11:46:32;4.21;61.07
68867;SHT30;56451;44.804;20.476;2022-12-18T11:49:08;4.41;60.73
68867;SHT30;56451;44.804;20.476;2022-12-18T11:54:28;4.82;59.81
68867;SHT30;56451;44.804;20.476;2022-12-18T11:57:09;4.79;59.54
68867;SHT30;56451;44.804;20.476;2022-12-18T12:03:04;4.42;61.55
68867;SHT30;56451;44.804;20.476;2022-12-18T12:16:59;3.36;64.41
68867;SHT30;56451;44.804;20.476;2022-12-18T12:22:42;3.38;64.12
68867;SHT30;56451;44.804;20.476;2022-12-18T12:30:22;3.23;64.60
68867;SHT30;56451;44.804;20.476;2022-12-18T12:40:58;3.51;64.50
68867;SHT30;56451;44.804;20.476;2022-12-18T12:43:33;3.46;64.62
68867;SHT30;56451;44.804;20.476;2022-12-18T12:46:05;3.51;64.92
68867;SHT30;56451;44.804;20.476;2022-12-18T12:51:53;3.75;63.20
68867;SHT30;56451;44.804;20.476;2022-12-18T12:54:17;3.79;63.27
68867;SHT30;56451;44.804;20.476;2022-12-18T12:56:49;3.86;63.66
68867;SHT30;56451;44.804;20.476;2022-12-18T12:59:24;3.97;63.99
68867;SHT30;56451;44.804;20.476;2022-12-18T13:01:59;4.14;63.88
68867;SHT30;56451;44.804;20.476;2022-12-18T13:13:09;4.06;62.51
68867;SHT30;56451;44.804;20.476;2022-12-18T13:23:29;4.04;62.98
68867;SHT30;56451;44.804;20.476;2022-12-18T13:38:37;4.14;62.94
68867;SHT30;56451;44.804;20.476;2022-12-18T13:43:45;4.11;62.81
68867;SHT30;56451;44.804;20.476;2022-12-18T13:51:49;4.30;61.93
68867;SHT30;56451;44.804;20.476;2022-12-18T13:56:54;4.29;61.02
68867;SHT30;56451;44.804;20.476;2022-12-18T13:59:22;4.30;61.46
68867;SHT30;56451;44.804;20.476;2022-12-18T14:01:57;4.44;61.60
68867;SHT30;56451;44.804;20.476;2022-12-18T14:04:28;4.59;61.30
68867;SHT30;56451;44.804;20.476;2022-12-18T14:07:12;4.78;60.94
68867;SHT30;56451;44.804;20.476;2022-12-18T14:09:45;4.83;60.42
68867;SHT30;56451;44.804;20.476;2022-12-18T14:12:16;4.76;60.30
68867;SHT30;56451;44.804;20.476;2022-12-18T14:15:01;4.69;60.35
68867;SHT30;56451;44.804;20.476;2022-12-18T14:17:28;4.69;61.25
68867;SHT30;56451;44.804;20.476;2022-12-18T14:19:54;4.73;61.52
68867;SHT30;56451;44.804;20.476;2022-12-18T14:22:24;4.75;60.28
68867;SHT30;56451;44.804;20.476;2022-12-18T14:25:18;4.69;59.93
68867;SHT30;56451;44.804;20.476;2022-12-18T14:27:52;4.72;60.09
68867;SHT30;56451;44.804;20.476;2022-12-18T14:35:51;4.88;59.34
68867;SHT30;56451;44.804;20.476;2022-12-18T14:38:27;4.88;58.96
68867;SHT30;56451;44.804;20.476;2022-12-18T14:40:59;4.83;58.78
68867;SHT30;56451;44.804;20.476;2022-12-18T14:43:27;4.83;58.96
68867;SHT30;56451;44.804;20.476;2022-12-18T14:45:53;4.88;59.06
68867;SHT30;56451;44.804;20.476;2022-12-18T14:51:05;4.93;59.20
68867;SHT30;56451;44.804;20.476;2022-12-18T14:53:40;4.96;59.56
68867;SHT30;56451;44.804;20.476;2022-12-18T14:56:20;4.90;59.90
68867;SHT30;56451;44.804;20.476;2022-12-18T14:58:51;4.72;59.93
68867;SHT30;56451;44.804;20.476;2022-12-18T15:01:38;4.61;60.24
68867;SHT30;56451;44.804;20.476;2022-12-18T15:04:29;4.57;60.78
68867;SHT30;56451;44.804;20.476;2022-12-18T15:09:30;4.72;60.89
68867;SHT30;56451;44.804;20.476;2022-12-18T15:11:58;4.79;60.87
68867;SHT30;56451;44.804;20.476;2022-12-18T15:17:04;4.78;60.89
68867;SHT30;56451;44.804;20.476;2022-12-18T15:19:41;4.52;62.02
68867;SHT30;56451;44.804;20.476;2022-12-18T15:24:50;4.27;63.88
68867;SHT30;56451;44.804;20.476;2022-12-18T15:27:26;4.18;64.34
68867;SHT30;56451;44.804;20.476;2022-12-18T15:32:34;4.06;63.83
68867;SHT30;56451;44.804;20.476;2022-12-18T15:35:15;4.03;64.25
68867;SHT30;56451;44.804;20.476;2022-12-18T15:37:42;3.96;64.36
68867;SHT30;56451;44.804;20.476;2022-12-18T15:40:19;3.87;65.19
68867;SHT30;56451;44.804;20.476;2022-12-18T15:42:46;3.85;65.55
68867;SHT30;56451;44.804;20.476;2022-12-18T15:45:31;3.81;65.94
68867;SHT30;56451;44.804;20.476;2022-12-18T15:47:57;3.87;66.25
68867;SHT30;56451;44.804;20.476;2022-12-18T15:50:24;3.94;66.30
68867;SHT30;56451;44.804;20.476;2022-12-18T15:52:52;4.04;65.81
68867;SHT30;56451;44.804;20.476;2022-12-18T15:55:21;4.04;65.99
68867;SHT30;56451;44.804;20.476;2022-12-18T15:58:07;4.09;66.18
68867;SHT30;56451;44.804;20.476;2022-12-18T16:00:34;4.09;66.29
68867;SHT30;56451;44.804;20.476;2022-12-18T16:03:00;4.02;66.53
68867;SHT30;56451;44.804;20.476;2022-12-18T16:05:27;3.96;66.66
68867;SHT30;56451;44.804;20.476;2022-12-18T16:07:53;3.97;66.75
68867;SHT30;56451;44.804;20.476;2022-12-18T16:10:19;3.99;66.99
68867;SHT30;56451;44.804;20.476;2022-12-18T16:12:45;3.97;67.16
68867;SHT30;56451;44.804;20.476;2022-12-18T16:15:15;3.93;67.58
68867;SHT30;56451;44.804;20.476;2022-12-18T16:17:46;3.86;67.58
68867;SHT30;56451;44.804;20.476;2022-12-18T16:20:17;3.87;67.50
68867;SHT30;56451;44.804;20.476;2022-12-18T16:22:44;3.83;67.88
68867;SHT30;56451;44.804;20.476;2022-12-18T16:25:22;3.81;68.39
68867;SHT30;56451;44.804;20.476;2022-12-18T16:27:49;3.76;68.38
68867;SHT30;56451;44.804;20.476;2022-12-18T16:30:20;3.69;68.46
68867;SHT30;56451;44.804;20.476;2022-12-18T16:32:47;3.65;68.80
68867;SHT30;56451;44.804;20.476;2022-12-18T16:35:14;3.65;69.06
68867;SHT30;56451;44.804;20.476;2022-12-18T16:37:41;3.65;68.93
68867;SHT30;56451;44.804;20.476;2022-12-18T16:40:11;3.62;68.83
68867;SHT30;56451;44.804;20.476;2022-12-18T16:42:42;3.61;69.08
68867;SHT30;56451;44.804;20.476;2022-12-18T16:45:16;3.62;68.85
68867;SHT30;56451;44.804;20.476;2022-12-18T16:47:43;3.59;68.85
68867;SHT30;56451;44.804;20.476;2022-12-18T16:50:10;3.59;69.09
68867;SHT30;56451;44.804;20.476;2022-12-18T16:52:36;3.56;69.14
68867;SHT30;56451;44.804;20.476;2022-12-18T16:55:02;3.58;69.19
68867;SHT30;56451;44.804;20.476;2022-12-18T16:57:28;3.65;69.26
68867;SHT30;56451;44.804;20.476;2022-12-18T16:59:54;3.73;69.19
68867;SHT30;56451;44.804;20.476;2022-12-18T17:02:22;3.94;67.49
68867;SHT30;56451;44.804;20.476;2022-12-18T17:04:49;4.00;66.45
68867;SHT30;56451;44.804;20.476;2022-12-18T17:07:17;3.96;66.23
68867;SHT30;56451;44.804;20.476;2022-12-18T17:09:43;3.93;66.04
68867;SHT30;56451;44.804;20.476;2022-12-18T17:12:09;3.89;66.07
68867;SHT30;56451;44.804;20.476;2022-12-18T17:14:35;3.85;65.84
68867;SHT30;56451;44.804;20.476;2022-12-18T17:17:02;3.86;65.31
68867;SHT30;56451;44.804;20.476;2022-12-18T17:19:28;3.90;65.73
68867;SHT30;56451;44.804;20.476;2022-12-18T17:21:54;3.90;66.42
68867;SHT30;56451;44.804;20.476;2022-12-18T17:24:20;3.89;66.58
68867;SHT30;56451;44.804;20.476;2022-12-18T17:26:47;3.87;66.74
68867;SHT30;56451;44.804;20.476;2022-12-18T17:29:18;3.90;67.04
68867;SHT30;56451;44.804;20.476;2022-12-18T17:31:45;3.89;66.81
68867;SHT30;56451;44.804;20.476;2022-12-18T17:34:11;3.83;66.65
68867;SHT30;56451;44.804;20.476;2022-12-18T17:36:38;3.73;66.98
68867;SHT30;56451;44.804;20.476;2022-12-18T17:39:05;3.73;67.62
68867;SHT30;56451;44.804;20.476;2022-12-18T17:41:32;3.76;67.54
68867;SHT30;56451;44.804;20.476;2022-12-18T17:44:00;3.81;67.25
68867;SHT30;56451;44.804;20.476;2022-12-18T17:46:28;3.79;67.17
68867;SHT30;56451;44.804;20.476;2022-12-18T17:48:59;3.78;66.85
68867;SHT30;56451;44.804;20.476;2022-12-18T17:51:26;3.76;67.32
68867;SHT30;56451;44.804;20.476;2022-12-18T17:53:51;3.73;67.74
68867;SHT30;56451;44.804;20.476;2022-12-18T17:56:19;3.73;67.60
68867;SHT30;56451;44.804;20.476;2022-12-18T17:58:45;3.86;67.30
68867;SHT30;56451;44.804;20.476;2022-12-18T18:01:15;3.93;66.81
68867;SHT30;56451;44.804;20.476;2022-12-18T18:03:41;3.97;67.11